sensor_id;sensor_type;location;lat;lon;timestamp;P1;durP1;ratioP1;P2;durP2;ratioP2
19343;SDS011;9808;52.402;16.678;2023-02-01T00:00:32;13.00;;;1.80;;
19343;SDS011;9808;52.402;16.678;2023-02-01T00:03:00;12.23;;;2.40;;
19343;SDS011;9808;52.402;16.678;2023-02-01T00:05:27;16.97;;;2.80;;
19343;SDS011;9808;52.402;16.678;2023-02-01T00:07:55;14.83;;;2.30;;
19343;SDS011;9808;52.402;16.678;2023-02-01T00:10:22;15.90;;;3.10;;
19343;SDS011;9808;52.402;16.678;2023-02-01T00:12:49;16.20;;;2.97;;
19343;SDS011;9808;52.402;16.678;2023-02-01T00:15:16;19.70;;;2.83;;
19343;SDS011;9808;52.402;16.678;2023-02-01T00:17:44;14.60;;;2.53;;
19343;SDS011;9808;52.402;16.678;2023-02-01T00:20:11;15.83;;;2.80;;
19343;SDS011;9808;52.402;16.678;2023-02-01T00:22:38;11.27;;;2.60;;
19343;SDS011;9808;52.402;16.678;2023-02-01T00:25:05;7.10;;;2.10;;
19343;SDS011;9808;52.402;16.678;2023-02-01T00:27:33;15.10;;;2.53;;
19343;SDS011;9808;52.402;16.678;2023-02-01T00:30:00;17.00;;;3.00;;
19343;SDS011;9808;52.402;16.678;2023-02-01T00:32:27;15.20;;;2.50;;
19343;SDS011;9808;52.402;16.678;2023-02-01T00:34:54;17.97;;;2.60;;
19343;SDS011;9808;52.402;16.678;2023-02-01T00:37:22;15.60;;;2.23;;
19343;SDS011;9808;52.402;16.678;2023-02-01T00:39:49;17.43;;;2.63;;
19343;SDS011;9808;52.402;16.678;2023-02-01T00:42:16;12.63;;;2.07;;
19343;SDS011;9808;52.402;16.678;2023-02-01T00:44:43;14.73;;;3.00;;
19343;SDS011;9808;52.402;16.678;2023-02-01T00:47:11;12.23;;;2.23;;
19343;SDS011;9808;52.402;16.678;2023-02-01T00:49:38;16.60;;;2.47;;
19343;SDS011;9808;52.402;16.678;2023-02-01T00:52:05;17.83;;;2.20;;
19343;SDS011;9808;52.402;16.678;2023-02-01T00:54:32;14.13;;;3.13;;
19343;SDS011;9808;52.402;16.678;2023-02-01T00:57:00;12.10;;;1.80;;
19343;SDS011;9808;52.402;16.678;2023-02-01T00:59:28;13.40;;;2.57;;
19343;SDS011;9808;52.402;16.678;2023-02-01T01:01:55;16.33;;;2.33;;
19343;SDS011;9808;52.402;16.678;2023-02-01T01:04:22;19.67;;;2.30;;
19343;SDS011;9808;52.402;16.678;2023-02-01T01:06:49;15.23;;;2.13;;
19343;SDS011;9808;52.402;16.678;2023-02-01T01:09:16;14.37;;;2.13;;
19343;SDS011;9808;52.402;16.678;2023-02-01T01:11:44;21.23;;;2.83;;
19343;SDS011;9808;52.402;16.678;2023-02-01T01:14:11;13.27;;;2.20;;
19343;SDS011;9808;52.402;16.678;2023-02-01T01:16:38;10.27;;;1.90;;
19343;SDS011;9808;52.402;16.678;2023-02-01T01:19:05;10.93;;;2.03;;
19343;SDS011;9808;52.402;16.678;2023-02-01T01:21:32;11.20;;;2.40;;
19343;SDS011;9808;52.402;16.678;2023-02-01T01:24:00;12.10;;;1.90;;
19343;SDS011;9808;52.402;16.678;2023-02-01T01:26:28;21.63;;;2.40;;
19343;SDS011;9808;52.402;16.678;2023-02-01T01:28:56;11.83;;;1.83;;
19343;SDS011;9808;52.402;16.678;2023-02-01T01:31:23;12.37;;;2.43;;
19343;SDS011;9808;52.402;16.678;2023-02-01T01:33:51;11.27;;;2.10;;
19343;SDS011;9808;52.402;16.678;2023-02-01T01:36:19;12.70;;;2.70;;
19343;SDS011;9808;52.402;16.678;2023-02-01T01:38:46;10.83;;;2.33;;
19343;SDS011;9808;52.402;16.678;2023-02-01T01:41:15;13.33;;;2.50;;
19343;SDS011;9808;52.402;16.678;2023-02-01T01:43:47;14.13;;;1.87;;
19343;SDS011;9808;52.402;16.678;2023-02-01T01:46:24;14.13;;;2.47;;
19343;SDS011;9808;52.402;16.678;2023-02-01T01:48:57;10.27;;;1.97;;
19343;SDS011;9808;52.402;16.678;2023-02-01T01:51:24;8.27;;;1.67;;
19343;SDS011;9808;52.402;16.678;2023-02-01T01:54:37;14.20;;;2.27;;
19343;SDS011;9808;52.402;16.678;2023-02-01T01:56:43;11.03;;;2.03;;
19343;SDS011;9808;52.402;16.678;2023-02-01T01:59:12;9.90;;;1.50;;
19343;SDS011;9808;52.402;16.678;2023-02-01T02:01:40;18.17;;;2.27;;
19343;SDS011;9808;52.402;16.678;2023-02-01T02:04:07;13.07;;;2.30;;
19343;SDS011;9808;52.402;16.678;2023-02-01T02:06:37;13.47;;;1.70;;
19343;SDS011;9808;52.402;16.678;2023-02-01T02:09:05;14.27;;;2.03;;
19343;SDS011;9808;52.402;16.678;2023-02-01T02:11:33;16.77;;;2.47;;
19343;SDS011;9808;52.402;16.678;2023-02-01T02:14:00;16.07;;;2.33;;
19343;SDS011;9808;52.402;16.678;2023-02-01T02:27:10;13.57;;;1.73;;
19343;SDS011;9808;52.402;16.678;2023-02-01T02:29:59;11.77;;;2.10;;
19343;SDS011;9808;52.402;16.678;2023-02-01T02:35:05;14.63;;;2.37;;
19343;SDS011;9808;52.402;16.678;2023-02-01T02:37:38;14.00;;;2.20;;
19343;SDS011;9808;52.402;16.678;2023-02-01T02:48:15;20.27;;;2.43;;
19343;SDS011;9808;52.402;16.678;2023-02-01T02:53:43;20.43;;;2.70;;
19343;SDS011;9808;52.402;16.678;2023-02-01T02:56:33;17.97;;;2.67;;
19343;SDS011;9808;52.402;16.678;2023-02-01T02:59:21;12.23;;;2.63;;
19343;SDS011;9808;52.402;16.678;2023-02-01T03:02:08;15.30;;;2.37;;
19343;SDS011;9808;52.402;16.678;2023-02-01T03:04:54;16.27;;;2.43;;
19343;SDS011;9808;52.402;16.678;2023-02-01T03:10:15;20.57;;;2.63;;
19343;SDS011;9808;52.402;16.678;2023-02-01T03:12:44;17.60;;;2.37;;
19343;SDS011;9808;52.402;16.678;2023-02-01T03:15:24;15.50;;;2.97;;
19343;SDS011;9808;52.402;16.678;2023-02-01T03:17:53;11.93;;;2.40;;
19343;SDS011;9808;52.402;16.678;2023-02-01T03:20:22;17.93;;;2.83;;
19343;SDS011;9808;52.402;16.678;2023-02-01T03:22:51;20.20;;;3.60;;
19343;SDS011;9808;52.402;16.678;2023-02-01T03:25:24;17.40;;;2.53;;
19343;SDS011;9808;52.402;16.678;2023-02-01T03:27:53;13.53;;;2.47;;
19343;SDS011;9808;52.402;16.678;2023-02-01T03:30:26;17.30;;;2.67;;
19343;SDS011;9808;52.402;16.678;2023-02-01T03:32:55;14.33;;;2.60;;
19343;SDS011;9808;52.402;16.678;2023-02-01T03:40:58;16.10;;;3.00;;
19343;SDS011;9808;52.402;16.678;2023-02-01T03:43:27;17.27;;;2.43;;
19343;SDS011;9808;52.402;16.678;2023-02-01T03:45:58;24.47;;;3.30;;
19343;SDS011;9808;52.402;16.678;2023-02-01T03:48:27;14.77;;;2.17;;
19343;SDS011;9808;52.402;16.678;2023-02-01T03:50:56;21.17;;;2.83;;
19343;SDS011;9808;52.402;16.678;2023-02-01T03:53:25;13.20;;;2.27;;
19343;SDS011;9808;52.402;16.678;2023-02-01T03:55:53;12.20;;;2.60;;
19343;SDS011;9808;52.402;16.678;2023-02-01T03:58:21;10.03;;;1.97;;
19343;SDS011;9808;52.402;16.678;2023-02-01T04:00:56;10.93;;;2.37;;
19343;SDS011;9808;52.402;16.678;2023-02-01T04:03:24;14.33;;;2.63;;
19343;SDS011;9808;52.402;16.678;2023-02-01T04:05:52;13.10;;;2.57;;
19343;SDS011;9808;52.402;16.678;2023-02-01T04:08:20;18.90;;;2.50;;
19343;SDS011;9808;52.402;16.678;2023-02-01T04:10:47;16.63;;;2.90;;
19343;SDS011;9808;52.402;16.678;2023-02-01T04:13:14;7.17;;;1.87;;
19343;SDS011;9808;52.402;16.678;2023-02-01T04:15:42;10.47;;;2.13;;
19343;SDS011;9808;52.402;16.678;2023-02-01T04:18:09;12.07;;;2.93;;
19343;SDS011;9808;52.402;16.678;2023-02-01T04:20:36;10.77;;;2.00;;
19343;SDS011;9808;52.402;16.678;2023-02-01T04:23:03;16.90;;;2.10;;
19343;SDS011;9808;52.402;16.678;2023-02-01T04:25:30;14.10;;;2.43;;
19343;SDS011;9808;52.402;16.678;2023-02-01T04:27:58;13.80;;;2.10;;
19343;SDS011;9808;52.402;16.678;2023-02-01T04:30:25;11.03;;;1.63;;
19343;SDS011;9808;52.402;16.678;2023-02-01T04:32:52;11.57;;;2.10;;
19343;SDS011;9808;52.402;16.678;2023-02-01T04:35:19;13.63;;;2.17;;
19343;SDS011;9808;52.402;16.678;2023-02-01T04:37:48;8.60;;;1.60;;
19343;SDS011;9808;52.402;16.678;2023-02-01T04:40:15;10.77;;;2.30;;
19343;SDS011;9808;52.402;16.678;2023-02-01T04:42:42;13.73;;;2.17;;
19343;SDS011;9808;52.402;16.678;2023-02-01T04:45:10;14.57;;;2.33;;
19343;SDS011;9808;52.402;16.678;2023-02-01T04:47:37;14.77;;;2.07;;
19343;SDS011;9808;52.402;16.678;2023-02-01T04:50:04;12.20;;;1.47;;
19343;SDS011;9808;52.402;16.678;2023-02-01T04:52:32;15.17;;;2.67;;
19343;SDS011;9808;52.402;16.678;2023-02-01T04:54:59;8.13;;;1.93;;
19343;SDS011;9808;52.402;16.678;2023-02-01T04:57:28;12.80;;;2.50;;
19343;SDS011;9808;52.402;16.678;2023-02-01T04:59:55;16.43;;;2.43;;
19343;SDS011;9808;52.402;16.678;2023-02-01T05:02:22;9.37;;;2.03;;
19343;SDS011;9808;52.402;16.678;2023-02-01T05:04:49;14.93;;;2.00;;
19343;SDS011;9808;52.402;16.678;2023-02-01T05:07:17;15.67;;;2.63;;
19343;SDS011;9808;52.402;16.678;2023-02-01T05:09:44;9.83;;;1.90;;
19343;SDS011;9808;52.402;16.678;2023-02-01T05:12:12;25.10;;;2.80;;
19343;SDS011;9808;52.402;16.678;2023-02-01T05:14:58;13.40;;;1.80;;
19343;SDS011;9808;52.402;16.678;2023-02-01T05:17:25;16.33;;;2.70;;
19343;SDS011;9808;52.402;16.678;2023-02-01T05:19:52;12.03;;;2.20;;
19343;SDS011;9808;52.402;16.678;2023-02-01T05:22:19;15.30;;;2.57;;
19343;SDS011;9808;52.402;16.678;2023-02-01T05:24:46;13.50;;;2.80;;
19343;SDS011;9808;52.402;16.678;2023-02-01T05:27:14;20.67;;;2.43;;
19343;SDS011;9808;52.402;16.678;2023-02-01T05:29:41;19.53;;;3.10;;
19343;SDS011;9808;52.402;16.678;2023-02-01T05:32:09;16.13;;;2.67;;
19343;SDS011;9808;52.402;16.678;2023-02-01T05:34:47;15.57;;;2.57;;
19343;SDS011;9808;52.402;16.678;2023-02-01T05:37:15;23.20;;;3.07;;
19343;SDS011;9808;52.402;16.678;2023-02-01T05:39:42;15.13;;;2.47;;
19343;SDS011;9808;52.402;16.678;2023-02-01T05:42:09;19.13;;;3.50;;
19343;SDS011;9808;52.402;16.678;2023-02-01T05:44:36;24.77;;;4.47;;
19343;SDS011;9808;52.402;16.678;2023-02-01T05:47:04;15.47;;;2.67;;
19343;SDS011;9808;52.402;16.678;2023-02-01T05:49:31;15.27;;;2.20;;
19343;SDS011;9808;52.402;16.678;2023-02-01T05:51:58;17.13;;;2.60;;
19343;SDS011;9808;52.402;16.678;2023-02-01T05:54:26;15.93;;;3.07;;
19343;SDS011;9808;52.402;16.678;2023-02-01T05:56:53;12.90;;;2.90;;
19343;SDS011;9808;52.402;16.678;2023-02-01T05:59:20;23.47;;;3.77;;
19343;SDS011;9808;52.402;16.678;2023-02-01T06:01:48;10.30;;;2.67;;
19343;SDS011;9808;52.402;16.678;2023-02-01T06:04:15;20.20;;;3.80;;
19343;SDS011;9808;52.402;16.678;2023-02-01T06:06:42;16.40;;;3.30;;
19343;SDS011;9808;52.402;16.678;2023-02-01T06:09:09;19.37;;;2.87;;
19343;SDS011;9808;52.402;16.678;2023-02-01T06:11:36;19.70;;;3.27;;
19343;SDS011;9808;52.402;16.678;2023-02-01T06:14:04;16.87;;;2.67;;
19343;SDS011;9808;52.402;16.678;2023-02-01T06:16:34;17.07;;;3.20;;
19343;SDS011;9808;52.402;16.678;2023-02-01T06:19:01;16.10;;;2.30;;
19343;SDS011;9808;52.402;16.678;2023-02-01T06:21:28;15.93;;;2.30;;
19343;SDS011;9808;52.402;16.678;2023-02-01T06:23:55;16.43;;;2.73;;
19343;SDS011;9808;52.402;16.678;2023-02-01T06:26:24;18.10;;;3.13;;
19343;SDS011;9808;52.402;16.678;2023-02-01T06:28:51;15.93;;;2.63;;
19343;SDS011;9808;52.402;16.678;2023-02-01T06:31:19;13.23;;;2.60;;
19343;SDS011;9808;52.402;16.678;2023-02-01T06:33:46;13.23;;;2.43;;
19343;SDS011;9808;52.402;16.678;2023-02-01T06:36:15;22.27;;;3.67;;
19343;SDS011;9808;52.402;16.678;2023-02-01T06:38:43;13.20;;;2.93;;
19343;SDS011;9808;52.402;16.678;2023-02-01T06:41:10;21.13;;;3.23;;
19343;SDS011;9808;52.402;16.678;2023-02-01T06:43:38;17.70;;;3.00;;
19343;SDS011;9808;52.402;16.678;2023-02-01T06:46:09;20.70;;;3.40;;
19343;SDS011;9808;52.402;16.678;2023-02-01T06:48:38;22.20;;;2.97;;
19343;SDS011;9808;52.402;16.678;2023-02-01T06:51:06;17.53;;;3.00;;
19343;SDS011;9808;52.402;16.678;2023-02-01T06:53:33;16.80;;;3.27;;
19343;SDS011;9808;52.402;16.678;2023-02-01T06:56:01;25.97;;;3.57;;
19343;SDS011;9808;52.402;16.678;2023-02-01T06:58:33;18.70;;;3.47;;
19343;SDS011;9808;52.402;16.678;2023-02-01T07:01:07;20.63;;;3.53;;
19343;SDS011;9808;52.402;16.678;2023-02-01T07:03:35;16.03;;;2.83;;
19343;SDS011;9808;52.402;16.678;2023-02-01T07:06:02;21.63;;;3.10;;
19343;SDS011;9808;52.402;16.678;2023-02-01T07:08:31;16.73;;;3.10;;
19343;SDS011;9808;52.402;16.678;2023-02-01T07:11:05;24.13;;;3.37;;
19343;SDS011;9808;52.402;16.678;2023-02-01T07:13:33;23.73;;;3.80;;
19343;SDS011;9808;52.402;16.678;2023-02-01T07:16:04;18.50;;;3.33;;
19343;SDS011;9808;52.402;16.678;2023-02-01T07:18:31;16.83;;;3.03;;
19343;SDS011;9808;52.402;16.678;2023-02-01T07:20:59;15.60;;;3.07;;
19343;SDS011;9808;52.402;16.678;2023-02-01T07:23:26;18.17;;;3.67;;
19343;SDS011;9808;52.402;16.678;2023-02-01T07:25:54;19.90;;;3.67;;
19343;SDS011;9808;52.402;16.678;2023-02-01T07:28:22;24.20;;;3.77;;
19343;SDS011;9808;52.402;16.678;2023-02-01T07:30:49;18.57;;;3.37;;
19343;SDS011;9808;52.402;16.678;2023-02-01T07:33:18;14.67;;;3.37;;
19343;SDS011;9808;52.402;16.678;2023-02-01T07:35:45;20.80;;;3.63;;
19343;SDS011;9808;52.402;16.678;2023-02-01T07:38:13;16.73;;;3.70;;
19343;SDS011;9808;52.402;16.678;2023-02-01T07:40:40;12.17;;;3.60;;
19343;SDS011;9808;52.402;16.678;2023-02-01T07:43:08;23.30;;;4.10;;
19343;SDS011;9808;52.402;16.678;2023-02-01T07:45:35;17.60;;;3.33;;
19343;SDS011;9808;52.402;16.678;2023-02-01T07:48:03;24.43;;;4.30;;
19343;SDS011;9808;52.402;16.678;2023-02-01T07:50:30;19.87;;;4.10;;
19343;SDS011;9808;52.402;16.678;2023-02-01T07:52:59;22.47;;;4.67;;
19343;SDS011;9808;52.402;16.678;2023-02-01T07:55:27;19.73;;;4.67;;
19343;SDS011;9808;52.402;16.678;2023-02-01T07:57:56;19.60;;;3.83;;
19343;SDS011;9808;52.402;16.678;2023-02-01T08:00:24;21.57;;;4.10;;
19343;SDS011;9808;52.402;16.678;2023-02-01T08:03:10;16.87;;;3.97;;
19343;SDS011;9808;52.402;16.678;2023-02-01T08:05:37;15.90;;;3.30;;
19343;SDS011;9808;52.402;16.678;2023-02-01T08:08:05;17.73;;;4.30;;
19343;SDS011;9808;52.402;16.678;2023-02-01T08:10:33;18.10;;;3.97;;
19343;SDS011;9808;52.402;16.678;2023-02-01T08:13:02;22.70;;;3.97;;
19343;SDS011;9808;52.402;16.678;2023-02-01T08:15:29;22.20;;;3.93;;
19343;SDS011;9808;52.402;16.678;2023-02-01T08:17:57;25.03;;;3.80;;
19343;SDS011;9808;52.402;16.678;2023-02-01T08:20:24;21.47;;;3.47;;
19343;SDS011;9808;52.402;16.678;2023-02-01T08:22:55;13.83;;;3.70;;
19343;SDS011;9808;52.402;16.678;2023-02-01T08:25:22;28.50;;;3.63;;
19343;SDS011;9808;52.402;16.678;2023-02-01T08:27:50;16.83;;;3.97;;
19343;SDS011;9808;52.402;16.678;2023-02-01T08:30:17;16.50;;;3.73;;
19343;SDS011;9808;52.402;16.678;2023-02-01T08:32:44;20.37;;;5.13;;
19343;SDS011;9808;52.402;16.678;2023-02-01T08:35:11;20.57;;;4.50;;
19343;SDS011;9808;52.402;16.678;2023-02-01T08:37:39;17.40;;;3.57;;
19343;SDS011;9808;52.402;16.678;2023-02-01T08:40:06;22.87;;;3.83;;
19343;SDS011;9808;52.402;16.678;2023-02-01T08:42:34;18.93;;;3.80;;
19343;SDS011;9808;52.402;16.678;2023-02-01T08:45:21;21.97;;;3.93;;
19343;SDS011;9808;52.402;16.678;2023-02-01T08:47:53;17.90;;;3.80;;
19343;SDS011;9808;52.402;16.678;2023-02-01T08:50:20;26.80;;;6.03;;
19343;SDS011;9808;52.402;16.678;2023-02-01T08:52:48;16.90;;;3.53;;
19343;SDS011;9808;52.402;16.678;2023-02-01T08:55:16;23.93;;;4.40;;
19343;SDS011;9808;52.402;16.678;2023-02-01T08:57:43;17.23;;;3.60;;
19343;SDS011;9808;52.402;16.678;2023-02-01T09:00:12;20.07;;;3.93;;
19343;SDS011;9808;52.402;16.678;2023-02-01T09:02:39;18.40;;;3.90;;
19343;SDS011;9808;52.402;16.678;2023-02-01T09:05:07;16.90;;;3.00;;
19343;SDS011;9808;52.402;16.678;2023-02-01T09:07:34;15.27;;;3.30;;
19343;SDS011;9808;52.402;16.678;2023-02-01T09:10:02;14.43;;;3.07;;
19343;SDS011;9808;52.402;16.678;2023-02-01T09:12:30;14.30;;;2.80;;
19343;SDS011;9808;52.402;16.678;2023-02-01T09:14:58;7.30;;;2.13;;
19343;SDS011;9808;52.402;16.678;2023-02-01T09:17:26;13.30;;;3.07;;
19343;SDS011;9808;52.402;16.678;2023-02-01T09:19:54;17.47;;;3.70;;
19343;SDS011;9808;52.402;16.678;2023-02-01T09:22:22;11.87;;;3.10;;
19343;SDS011;9808;52.402;16.678;2023-02-01T09:24:49;14.50;;;3.13;;
19343;SDS011;9808;52.402;16.678;2023-02-01T09:27:18;8.80;;;2.53;;
19343;SDS011;9808;52.402;16.678;2023-02-01T09:29:45;16.17;;;3.87;;
19343;SDS011;9808;52.402;16.678;2023-02-01T09:32:19;13.60;;;3.70;;
19343;SDS011;9808;52.402;16.678;2023-02-01T09:34:46;13.63;;;3.13;;
19343;SDS011;9808;52.402;16.678;2023-02-01T09:37:14;9.83;;;3.10;;
19343;SDS011;9808;52.402;16.678;2023-02-01T09:39:41;14.17;;;2.97;;
19343;SDS011;9808;52.402;16.678;2023-02-01T09:47:34;16.40;;;4.20;;
19343;SDS011;9808;52.402;16.678;2023-02-01T09:52:45;15.00;;;4.27;;
19343;SDS011;9808;52.402;16.678;2023-02-01T09:57:55;14.17;;;3.30;;
19343;SDS011;9808;52.402;16.678;2023-02-01T10:00:25;14.77;;;3.70;;
19343;SDS011;9808;52.402;16.678;2023-02-01T10:02:54;19.40;;;4.13;;
19343;SDS011;9808;52.402;16.678;2023-02-01T10:06:06;18.23;;;4.20;;
19343;SDS011;9808;52.402;16.678;2023-02-01T10:10:49;15.87;;;4.27;;
19343;SDS011;9808;52.402;16.678;2023-02-01T10:13:34;15.67;;;3.60;;
19343;SDS011;9808;52.402;16.678;2023-02-01T10:18:40;16.47;;;4.77;;
19343;SDS011;9808;52.402;16.678;2023-02-01T10:26:27;15.23;;;4.80;;
19343;SDS011;9808;52.402;16.678;2023-02-01T10:29:00;14.63;;;4.57;;
19343;SDS011;9808;52.402;16.678;2023-02-01T10:31:31;19.33;;;5.10;;
19343;SDS011;9808;52.402;16.678;2023-02-01T10:34:07;12.60;;;4.50;;
19343;SDS011;9808;52.402;16.678;2023-02-01T10:36:44;16.07;;;4.97;;
19343;SDS011;9808;52.402;16.678;2023-02-01T10:39:16;13.90;;;4.00;;
19343;SDS011;9808;52.402;16.678;2023-02-01T10:41:43;11.80;;;4.83;;
19343;SDS011;9808;52.402;16.678;2023-02-01T10:44:18;11.07;;;4.20;;
19343;SDS011;9808;52.402;16.678;2023-02-01T10:46:46;17.93;;;5.00;;
19343;SDS011;9808;52.402;16.678;2023-02-01T10:49:16;14.13;;;4.33;;
19343;SDS011;9808;52.402;16.678;2023-02-01T10:51:48;13.03;;;4.07;;
19343;SDS011;9808;52.402;16.678;2023-02-01T10:54:20;14.50;;;4.37;;
19343;SDS011;9808;52.402;16.678;2023-02-01T10:56:48;15.57;;;4.40;;
19343;SDS011;9808;52.402;16.678;2023-02-01T10:59:16;12.53;;;4.27;;
19343;SDS011;9808;52.402;16.678;2023-02-01T11:01:45;9.53;;;3.80;;
19343;SDS011;9808;52.402;16.678;2023-02-01T11:04:14;11.23;;;3.63;;
19343;SDS011;9808;52.402;16.678;2023-02-01T11:07:04;11.40;;;3.30;;
19343;SDS011;9808;52.402;16.678;2023-02-01T11:09:35;11.00;;;3.40;;
19343;SDS011;9808;52.402;16.678;2023-02-01T11:12:07;10.40;;;3.33;;
19343;SDS011;9808;52.402;16.678;2023-02-01T11:14:47;14.27;;;3.53;;
19343;SDS011;9808;52.402;16.678;2023-02-01T11:19:44;13.13;;;3.87;;
19343;SDS011;9808;52.402;16.678;2023-02-01T11:22:12;14.20;;;4.03;;
19343;SDS011;9808;52.402;16.678;2023-02-01T11:24:40;12.17;;;3.47;;
19343;SDS011;9808;52.402;16.678;2023-02-01T11:27:17;14.93;;;3.90;;
19343;SDS011;9808;52.402;16.678;2023-02-01T11:29:54;14.40;;;3.87;;
19343;SDS011;9808;52.402;16.678;2023-02-01T11:32:22;13.73;;;4.73;;
19343;SDS011;9808;52.402;16.678;2023-02-01T11:34:57;11.63;;;4.80;;
19343;SDS011;9808;52.402;16.678;2023-02-01T11:40:00;16.67;;;4.63;;
19343;SDS011;9808;52.402;16.678;2023-02-01T11:42:28;8.93;;;4.40;;
19343;SDS011;9808;52.402;16.678;2023-02-01T11:47:42;9.47;;;3.90;;
19343;SDS011;9808;52.402;16.678;2023-02-01T11:50:14;16.13;;;3.70;;
19343;SDS011;9808;52.402;16.678;2023-02-01T11:53:02;10.47;;;4.23;;
19343;SDS011;9808;52.402;16.678;2023-02-01T12:16:37;8.60;;;2.53;;
19343;SDS011;9808;52.402;16.678;2023-02-01T12:24:25;9.40;;;2.37;;
19343;SDS011;9808;52.402;16.678;2023-02-01T12:32:19;4.97;;;1.80;;
19343;SDS011;9808;52.402;16.678;2023-02-01T12:34:55;7.40;;;2.70;;
19343;SDS011;9808;52.402;16.678;2023-02-01T12:42:48;9.90;;;2.33;;
19343;SDS011;9808;52.402;16.678;2023-02-01T12:47:57;11.37;;;2.17;;
19343;SDS011;9808;52.402;16.678;2023-02-01T12:50:33;8.50;;;2.23;;
19343;SDS011;9808;52.402;16.678;2023-02-01T12:53:12;8.53;;;2.33;;
19343;SDS011;9808;52.402;16.678;2023-02-01T12:55:47;7.67;;;2.17;;
19343;SDS011;9808;52.402;16.678;2023-02-01T12:58:20;10.27;;;2.67;;
19343;SDS011;9808;52.402;16.678;2023-02-01T13:00:52;6.30;;;1.93;;
19343;SDS011;9808;52.402;16.678;2023-02-01T13:05:59;8.40;;;2.10;;
19343;SDS011;9808;52.402;16.678;2023-02-01T13:11:24;7.30;;;2.00;;
19343;SDS011;9808;52.402;16.678;2023-02-01T13:13:59;7.23;;;1.90;;
19343;SDS011;9808;52.402;16.678;2023-02-01T13:16:29;7.93;;;1.73;;
19343;SDS011;9808;52.402;16.678;2023-02-01T13:19:16;8.57;;;1.73;;
19343;SDS011;9808;52.402;16.678;2023-02-01T13:21:48;8.07;;;1.87;;
19343;SDS011;9808;52.402;16.678;2023-02-01T13:24:26;8.37;;;1.73;;
19343;SDS011;9808;52.402;16.678;2023-02-01T13:26:54;8.77;;;1.87;;
19343;SDS011;9808;52.402;16.678;2023-02-01T13:29:22;8.53;;;1.80;;
19343;SDS011;9808;52.402;16.678;2023-02-01T13:32:00;10.80;;;2.77;;
19343;SDS011;9808;52.402;16.678;2023-02-01T13:44:45;15.77;;;2.73;;
19343;SDS011;9808;52.402;16.678;2023-02-01T13:49:53;8.93;;;2.20;;
19343;SDS011;9808;52.402;16.678;2023-02-01T13:55:00;10.63;;;2.90;;
19343;SDS011;9808;52.402;16.678;2023-02-01T13:57:34;13.93;;;2.73;;
19343;SDS011;9808;52.402;16.678;2023-02-01T14:00:07;15.10;;;4.03;;
19343;SDS011;9808;52.402;16.678;2023-02-01T14:05:59;11.63;;;2.47;;
19343;SDS011;9808;52.402;16.678;2023-02-01T14:16:15;9.23;;;2.50;;
19343;SDS011;9808;52.402;16.678;2023-02-01T14:21:18;11.27;;;2.20;;
19343;SDS011;9808;52.402;16.678;2023-02-01T14:28:53;13.67;;;2.97;;
19343;SDS011;9808;52.402;16.678;2023-02-01T14:33:54;13.60;;;2.63;;
19343;SDS011;9808;52.402;16.678;2023-02-01T14:36:22;9.87;;;2.10;;
19343;SDS011;9808;52.402;16.678;2023-02-01T14:38:50;7.63;;;2.00;;
19343;SDS011;9808;52.402;16.678;2023-02-01T14:41:26;7.03;;;2.00;;
19343;SDS011;9808;52.402;16.678;2023-02-01T14:49:16;8.97;;;1.80;;
19343;SDS011;9808;52.402;16.678;2023-02-01T14:51:44;10.13;;;2.23;;
19343;SDS011;9808;52.402;16.678;2023-02-01T14:54:11;12.33;;;2.30;;
19343;SDS011;9808;52.402;16.678;2023-02-01T14:56:40;9.13;;;2.00;;
19343;SDS011;9808;52.402;16.678;2023-02-01T14:59:09;11.00;;;2.20;;
19343;SDS011;9808;52.402;16.678;2023-02-01T15:01:47;13.03;;;2.40;;
19343;SDS011;9808;52.402;16.678;2023-02-01T15:04:17;8.77;;;2.20;;
19343;SDS011;9808;52.402;16.678;2023-02-01T15:06:51;13.80;;;2.97;;
19343;SDS011;9808;52.402;16.678;2023-02-01T15:09:42;9.13;;;1.97;;
19343;SDS011;9808;52.402;16.678;2023-02-01T15:14:38;12.70;;;3.10;;
19343;SDS011;9808;52.402;16.678;2023-02-01T15:19:52;10.77;;;2.87;;
19343;SDS011;9808;52.402;16.678;2023-02-01T15:22:20;9.97;;;3.33;;
19343;SDS011;9808;52.402;16.678;2023-02-01T15:24:54;14.20;;;4.10;;
19343;SDS011;9808;52.402;16.678;2023-02-01T15:27:22;13.00;;;4.00;;
19343;SDS011;9808;52.402;16.678;2023-02-01T15:29:50;13.60;;;3.17;;
19343;SDS011;9808;52.402;16.678;2023-02-01T15:32:30;11.03;;;3.20;;
19343;SDS011;9808;52.402;16.678;2023-02-01T15:34:58;9.50;;;2.30;;
19343;SDS011;9808;52.402;16.678;2023-02-01T15:37:26;6.90;;;2.20;;
19343;SDS011;9808;52.402;16.678;2023-02-01T15:42:53;6.97;;;1.90;;
19343;SDS011;9808;52.402;16.678;2023-02-01T15:45:21;7.30;;;2.10;;
19343;SDS011;9808;52.402;16.678;2023-02-01T15:47:50;6.40;;;1.97;;
19343;SDS011;9808;52.402;16.678;2023-02-01T15:50:18;9.03;;;2.30;;
19343;SDS011;9808;52.402;16.678;2023-02-01T15:52:50;7.57;;;2.40;;
19343;SDS011;9808;52.402;16.678;2023-02-01T15:55:19;6.17;;;2.00;;
19343;SDS011;9808;52.402;16.678;2023-02-01T15:57:48;5.23;;;2.07;;
19343;SDS011;9808;52.402;16.678;2023-02-01T16:00:27;7.40;;;2.23;;
19343;SDS011;9808;52.402;16.678;2023-02-01T16:02:56;7.20;;;2.43;;
19343;SDS011;9808;52.402;16.678;2023-02-01T16:05:32;9.23;;;2.30;;
19343;SDS011;9808;52.402;16.678;2023-02-01T16:08:01;7.83;;;2.57;;
19343;SDS011;9808;52.402;16.678;2023-02-01T16:10:30;7.07;;;2.57;;
19343;SDS011;9808;52.402;16.678;2023-02-01T16:12:57;11.37;;;3.33;;
19343;SDS011;9808;52.402;16.678;2023-02-01T16:15:26;10.57;;;2.83;;
19343;SDS011;9808;52.402;16.678;2023-02-01T16:17:56;8.33;;;2.50;;
19343;SDS011;9808;52.402;16.678;2023-02-01T16:20:23;13.60;;;4.50;;
19343;SDS011;9808;52.402;16.678;2023-02-01T16:22:50;9.93;;;3.60;;
19343;SDS011;9808;52.402;16.678;2023-02-01T16:25:18;12.37;;;4.37;;
19343;SDS011;9808;52.402;16.678;2023-02-01T16:27:45;10.57;;;4.03;;
19343;SDS011;9808;52.402;16.678;2023-02-01T16:30:13;12.77;;;5.00;;
19343;SDS011;9808;52.402;16.678;2023-02-01T16:32:40;13.87;;;5.00;;
19343;SDS011;9808;52.402;16.678;2023-02-01T16:37:53;14.93;;;5.40;;
19343;SDS011;9808;52.402;16.678;2023-02-01T16:40:20;20.83;;;7.07;;
19343;SDS011;9808;52.402;16.678;2023-02-01T16:42:49;15.27;;;4.97;;
19343;SDS011;9808;52.402;16.678;2023-02-01T16:45:17;20.53;;;7.27;;
19343;SDS011;9808;52.402;16.678;2023-02-01T16:47:46;19.57;;;6.83;;
19343;SDS011;9808;52.402;16.678;2023-02-01T16:50:15;19.40;;;5.43;;
19343;SDS011;9808;52.402;16.678;2023-02-01T16:52:49;25.73;;;10.37;;
19343;SDS011;9808;52.402;16.678;2023-02-01T16:55:18;15.63;;;5.07;;
19343;SDS011;9808;52.402;16.678;2023-02-01T16:57:48;10.47;;;4.27;;
19343;SDS011;9808;52.402;16.678;2023-02-01T17:00:15;12.90;;;4.10;;
19343;SDS011;9808;52.402;16.678;2023-02-01T17:02:50;10.53;;;4.40;;
19343;SDS011;9808;52.402;16.678;2023-02-01T17:05:17;13.47;;;4.27;;
19343;SDS011;9808;52.402;16.678;2023-02-01T17:07:45;10.93;;;4.53;;
19343;SDS011;9808;52.402;16.678;2023-02-01T17:10:22;15.20;;;4.80;;
19343;SDS011;9808;52.402;16.678;2023-02-01T17:13:01;15.67;;;5.93;;
19343;SDS011;9808;52.402;16.678;2023-02-01T17:15:29;18.73;;;6.60;;
19343;SDS011;9808;52.402;16.678;2023-02-01T17:18:00;13.90;;;4.87;;
19343;SDS011;9808;52.402;16.678;2023-02-01T17:20:29;13.87;;;4.03;;
19343;SDS011;9808;52.402;16.678;2023-02-01T17:22:58;13.53;;;4.60;;
19343;SDS011;9808;52.402;16.678;2023-02-01T17:25:26;15.07;;;5.07;;
19343;SDS011;9808;52.402;16.678;2023-02-01T17:27:54;11.87;;;4.60;;
19343;SDS011;9808;52.402;16.678;2023-02-01T17:30:22;15.33;;;6.00;;